createdAt,value
2023-02-06T00:02:39.091Z,5.42
2023-02-06T00:05:25.884Z,5.45
2023-02-06T00:08:12.709Z,5.37
2023-02-06T00:11:03.035Z,5.35
2023-02-06T00:13:50.089Z,5.38
2023-02-06T00:16:36.832Z,5.52
2023-02-06T00:19:23.597Z,5.49
2023-02-06T00:22:12.469Z,5.42
2023-02-06T00:24:59.626Z,5.33
2023-02-06T00:27:46.396Z,5.36
2023-02-06T00:30:33.159Z,5.23
2023-02-06T00:33:23.011Z,5.22
2023-02-06T00:36:10.215Z,5.24
2023-02-06T00:38:57.002Z,5.25
2023-02-06T00:41:43.907Z,5.34
2023-02-06T00:44:30.675Z,5.31
2023-02-06T00:47:17.436Z,5.19
2023-02-06T00:50:04.765Z,5.13
2023-02-06T00:52:51.486Z,5.02
2023-02-06T00:55:38.295Z,4.95
2023-02-06T00:58:25.030Z,4.96
2023-02-06T01:01:11.846Z,4.87
2023-02-06T01:03:58.563Z,4.92
2023-02-06T01:06:45.383Z,4.92
2023-02-06T01:09:32.162Z,4.79
2023-02-06T01:12:18.940Z,4.71
2023-02-06T01:15:08.904Z,4.73
2023-02-06T01:17:55.687Z,4.68
2023-02-06T01:20:42.394Z,4.61
2023-02-06T01:23:29.111Z,4.59
2023-02-06T01:26:17.474Z,4.51
2023-02-06T01:29:04.679Z,4.50
2023-02-06T01:31:51.478Z,4.45
2023-02-06T01:34:38.214Z,4.42
2023-02-06T01:37:24.949Z,4.40
2023-02-06T01:40:14.842Z,4.21
2023-02-06T01:43:02.025Z,4.20
2023-02-06T01:45:50.074Z,4.22
2023-02-06T01:48:48.509Z,4.24
2023-02-06T01:51:35.549Z,4.03
2023-02-06T01:54:22.694Z,3.98
2023-02-06T01:57:11.788Z,4.10
2023-02-06T02:00:02.887Z,4.10
2023-02-06T02:02:50.229Z,4.06
2023-02-06T02:05:40.147Z,3.92
2023-02-06T02:08:39.895Z,3.78
2023-02-06T02:11:36.280Z,3.84
2023-02-06T02:14:23.156Z,3.81
2023-02-06T02:17:31.226Z,3.94
2023-02-06T02:20:31.246Z,3.92
2023-02-06T02:23:45.073Z,3.89
2023-02-06T02:26:50.994Z,3.83
2023-02-06T02:29:49.003Z,3.73
2023-02-06T02:33:11.897Z,3.85
2023-02-06T02:36:07.855Z,3.93
2023-02-06T02:39:09.019Z,3.94
2023-02-06T02:42:11.253Z,3.77
2023-02-06T02:45:24.041Z,3.69
2023-02-06T02:48:28.216Z,3.63
2023-02-06T02:51:16.460Z,3.59
2023-02-06T02:54:03.778Z,3.50
2023-02-06T02:56:50.585Z,3.60
2023-02-06T02:59:48.676Z,3.75
2023-02-06T03:02:38.869Z,3.63
2023-02-06T03:05:26.823Z,3.71
2023-02-06T03:08:32.436Z,3.63
2023-02-06T03:11:20.957Z,3.63
2023-02-06T03:14:19.087Z,3.68
2023-02-06T03:17:10.826Z,3.64
2023-02-06T03:19:59.580Z,3.57
2023-02-06T03:22:50.048Z,3.55
2023-02-06T03:25:41.779Z,3.53
2023-02-06T03:28:35.278Z,3.52
2023-02-06T03:31:30.843Z,3.58
2023-02-06T03:34:36.938Z,3.46
2023-02-06T03:37:25.115Z,3.48
2023-02-06T03:40:13.394Z,3.50
2023-02-06T03:43:04.065Z,3.50
2023-02-06T03:45:59.855Z,3.49
2023-02-06T03:48:50.662Z,3.47
2023-02-06T03:51:44.409Z,3.48
2023-02-06T03:54:33.617Z,3.51
2023-02-06T03:57:22.451Z,3.50
2023-02-06T04:00:10.061Z,3.52
2023-02-06T04:02:58.627Z,3.44
2023-02-06T04:05:45.623Z,3.42
2023-02-06T04:08:32.368Z,3.39
2023-02-06T04:11:19.135Z,3.39
2023-02-06T04:14:05.856Z,3.38
2023-02-06T04:16:52.584Z,3.32
2023-02-06T04:19:40.096Z,3.36
2023-02-06T04:22:26.878Z,3.31
2023-02-06T04:25:13.677Z,3.28
2023-02-06T04:28:00.667Z,3.17
2023-02-06T04:30:47.939Z,3.14
2023-02-06T04:33:34.723Z,3.15
2023-02-06T04:36:21.473Z,3.13
2023-02-06T04:39:08.647Z,3.10
2023-02-06T04:41:55.676Z,2.98
2023-02-06T04:44:42.444Z,3.10
2023-02-06T04:47:29.239Z,3.16
2023-02-06T04:50:17.504Z,3.09
2023-02-06T04:53:04.215Z,3.06
2023-02-06T04:55:50.960Z,2.99
2023-02-06T04:58:38.919Z,2.85
2023-02-06T05:01:25.928Z,2.96
2023-02-06T05:04:12.739Z,2.90
2023-02-06T05:06:59.564Z,2.71
2023-02-06T05:09:46.463Z,2.85
2023-02-06T05:12:33.233Z,2.86
2023-02-06T05:15:19.954Z,2.97
2023-02-06T05:18:06.931Z,3.12
2023-02-06T05:20:53.739Z,3.12
2023-02-06T05:23:40.762Z,3.29
2023-02-06T05:26:27.540Z,3.36
2023-02-06T05:29:14.347Z,3.34
2023-02-06T05:32:01.092Z,3.40
2023-02-06T05:34:47.835Z,3.43
2023-02-06T05:37:34.709Z,3.49
2023-02-06T05:40:21.562Z,3.42
2023-02-06T05:43:08.472Z,3.55
2023-02-06T05:45:55.270Z,3.62
2023-02-06T05:48:42.219Z,3.62
2023-02-06T05:51:29.032Z,3.58
2023-02-06T05:54:18.320Z,3.57
2023-02-06T05:57:05.091Z,3.50
2023-02-06T05:59:51.863Z,3.62
2023-02-06T06:02:39.300Z,3.64
2023-02-06T06:05:26.091Z,3.70
2023-02-06T06:08:12.968Z,3.73
2023-02-06T06:11:02.071Z,3.77
2023-02-06T06:13:49.311Z,3.77
2023-02-06T06:16:36.057Z,3.78
2023-02-06T06:19:22.842Z,3.87
2023-02-06T06:22:11.342Z,3.91
2023-02-06T06:24:58.202Z,3.96
2023-02-06T06:27:45.022Z,3.87
2023-02-06T06:30:32.584Z,3.92
2023-02-06T06:33:20.549Z,3.90
2023-02-06T06:36:09.166Z,3.89
2023-02-06T06:38:56.061Z,3.88
2023-02-06T06:41:42.795Z,3.83
2023-02-06T06:44:29.810Z,3.79
2023-02-06T06:47:16.639Z,3.76
2023-02-06T06:50:03.742Z,3.79
2023-02-06T06:52:50.479Z,3.77
2023-02-06T06:55:37.541Z,3.79
2023-02-06T06:58:24.427Z,3.90
2023-02-06T07:01:11.267Z,3.89
2023-02-06T07:03:59.194Z,3.99
2023-02-06T07:06:46.035Z,4.02
2023-02-06T07:09:33.203Z,4.04
2023-02-06T07:12:20.063Z,4.09
2023-02-06T07:15:07.256Z,4.08
2023-02-06T07:17:54.127Z,4.16
2023-02-06T07:20:44.709Z,4.18
2023-02-06T07:23:31.631Z,4.12
2023-02-06T07:26:18.420Z,4.20
2023-02-06T07:29:05.244Z,4.22
2023-02-06T07:31:52.131Z,4.31
2023-02-06T07:34:40.489Z,4.34
2023-02-06T07:37:27.241Z,4.38
2023-02-06T07:40:13.996Z,4.49
2023-02-06T07:43:00.707Z,4.42
2023-02-06T07:45:47.529Z,4.43
2023-02-06T07:48:34.340Z,4.43
2023-02-06T07:51:21.234Z,4.49
2023-02-06T07:54:08.501Z,4.41
2023-02-06T07:56:55.269Z,4.56
2023-02-06T07:59:42.120Z,4.56
2023-02-06T08:02:28.868Z,4.60
2023-02-06T08:05:15.627Z,4.59
2023-02-06T08:08:02.577Z,4.61
2023-02-06T08:10:49.501Z,4.66
2023-02-06T08:13:37.110Z,4.73
2023-02-06T08:16:24.650Z,4.69
2023-02-06T08:19:12.388Z,4.74
2023-02-06T08:21:59.138Z,4.73
2023-02-06T08:24:45.915Z,4.71
2023-02-06T08:27:32.730Z,4.83
2023-02-06T08:30:19.748Z,4.78
2023-02-06T08:33:06.503Z,4.81
2023-02-06T08:35:54.079Z,4.84
2023-02-06T08:38:40.936Z,4.88
2023-02-06T08:41:30.606Z,4.95
2023-02-06T08:44:18.589Z,5.00
2023-02-06T08:47:10.512Z,5.07
2023-02-06T08:49:57.477Z,5.06
2023-02-06T08:52:44.313Z,5.19
2023-02-06T08:55:31.063Z,5.16
2023-02-06T08:58:17.859Z,5.20
2023-02-06T09:00:44.532Z,5.21
2023-02-06T09:03:11.002Z,5.20
2023-02-06T09:05:37.729Z,5.19
2023-02-06T09:08:04.480Z,5.28
2023-02-06T09:10:49.265Z,5.21
2023-02-06T09:13:15.745Z,5.25
2023-02-06T09:15:43.275Z,5.26
2023-02-06T09:18:09.882Z,5.19
2023-02-06T09:20:36.383Z,5.26
2023-02-06T09:23:02.905Z,5.33
2023-02-06T09:25:29.494Z,5.34
2023-02-06T09:27:57.109Z,5.42
2023-02-06T09:30:23.712Z,5.50
2023-02-06T09:32:50.217Z,5.44
2023-02-06T09:35:16.723Z,5.32
2023-02-06T09:37:43.212Z,5.43
2023-02-06T09:40:12.603Z,5.39
2023-02-06T09:42:40.614Z,5.56
2023-02-06T09:45:09.314Z,5.75
2023-02-06T09:47:41.125Z,5.85
2023-02-06T09:50:47.961Z,5.72
2023-02-06T09:53:26.037Z,5.73
2023-02-06T09:56:02.081Z,5.74
2023-02-06T09:58:44.388Z,5.82
2023-02-06T10:01:34.381Z,5.92
2023-02-06T10:04:27.420Z,5.82
2023-02-06T10:07:04.099Z,5.86
2023-02-06T10:09:42.407Z,5.88
2023-02-06T10:12:19.592Z,6.00
2023-02-06T10:15:04.182Z,5.99
2023-02-06T10:17:49.110Z,6.00
2023-02-06T10:20:28.528Z,5.90
2023-02-06T10:23:18.264Z,5.91
2023-02-06T10:26:16.985Z,5.91
2023-02-06T10:28:59.833Z,5.96
2023-02-06T10:31:47.535Z,6.09
2023-02-06T10:34:28.276Z,6.10
2023-02-06T10:37:15.444Z,6.04
2023-02-06T10:39:53.027Z,5.99
2023-02-06T10:42:28.685Z,6.06
2023-02-06T10:45:18.910Z,6.00
2023-02-06T10:47:55.906Z,6.03
2023-02-06T10:50:55.107Z,5.98
2023-02-06T10:53:29.877Z,5.97
2023-02-06T10:56:04.763Z,6.05
2023-02-06T10:58:35.610Z,6.19
2023-02-06T11:01:02.479Z,6.25
2023-02-06T11:03:43.007Z,6.19
2023-02-06T11:06:13.174Z,6.15
2023-02-06T11:08:58.574Z,6.45
2023-02-06T11:11:29.667Z,6.48
2023-02-06T11:14:17.401Z,6.60
2023-02-06T11:16:44.788Z,6.63
2023-02-06T11:19:25.281Z,6.56
2023-02-06T11:22:08.699Z,6.41
2023-02-06T11:24:36.908Z,6.38
2023-02-06T11:27:18.818Z,6.58
2023-02-06T11:29:46.965Z,6.65
2023-02-06T11:32:29.535Z,6.74
2023-02-06T11:35:06.271Z,6.82
2023-02-06T11:37:38.408Z,6.78
2023-02-06T11:40:19.032Z,6.72
2023-02-06T11:42:47.471Z,6.46
2023-02-06T11:45:33.932Z,6.46
2023-02-06T11:48:01.035Z,6.36
2023-02-06T11:50:35.903Z,6.52
2023-02-06T11:53:17.206Z,6.56
2023-02-06T11:55:46.573Z,6.63
2023-02-06T11:58:12.939Z,6.71
2023-02-06T12:00:42.045Z,6.64
2023-02-06T12:03:32.383Z,6.53
2023-02-06T12:06:05.109Z,6.68
2023-02-06T12:08:44.348Z,6.68
2023-02-06T12:11:24.663Z,6.74
2023-02-06T12:14:07.308Z,6.65
2023-02-06T12:16:38.431Z,6.70
2023-02-06T12:19:12.186Z,6.79
2023-02-06T12:21:41.261Z,6.88
2023-02-06T12:24:40.988Z,7.06
2023-02-06T12:27:22.218Z,7.02
2023-02-06T12:30:04.256Z,6.96
2023-02-06T12:32:38.577Z,6.95
2023-02-06T12:35:32.104Z,7.07
2023-02-06T12:38:07.202Z,7.05
2023-02-06T12:40:38.186Z,7.11
2023-02-06T12:43:16.857Z,6.86
2023-02-06T12:45:55.504Z,6.86
2023-02-06T12:48:47.624Z,6.64
2023-02-06T12:51:40.291Z,6.57
2023-02-06T12:54:19.157Z,6.65
2023-02-06T12:57:13.863Z,6.59
2023-02-06T12:59:57.574Z,6.67
2023-02-06T13:03:01.308Z,6.86
2023-02-06T13:06:18.554Z,6.98
2023-02-06T13:08:56.589Z,7.18
2023-02-06T13:11:29.937Z,7.30
2023-02-06T13:14:23.840Z,7.26
2023-02-06T13:17:07.779Z,7.26
2023-02-06T13:19:37.221Z,7.21
2023-02-06T13:22:09.777Z,7.31
2023-02-06T13:24:41.419Z,7.14
2023-02-06T13:27:07.838Z,7.21
2023-02-06T13:29:37.414Z,7.15
2023-02-06T13:32:14.930Z,6.99
2023-02-06T13:34:44.411Z,7.01
2023-02-06T13:37:20.900Z,7.14
2023-02-06T13:39:49.026Z,7.23
2023-02-06T13:42:46.398Z,7.27
2023-02-06T13:45:21.805Z,7.33
2023-02-06T13:48:07.220Z,7.33
2023-02-06T13:50:58.270Z,7.27
2023-02-06T13:53:52.806Z,7.17
2023-02-06T13:56:56.958Z,7.10
2023-02-06T14:00:01.578Z,7.04
2023-02-06T14:02:41.677Z,7.12
2023-02-06T14:05:22.010Z,7.13
2023-02-06T14:08:15.370Z,7.11
2023-02-06T14:10:50.694Z,7.11
2023-02-06T14:13:28.728Z,7.13
2023-02-06T14:16:27.597Z,7.18
2023-02-06T14:19:02.480Z,7.09
2023-02-06T14:21:37.439Z,7.12
2023-02-06T14:24:27.521Z,7.15
2023-02-06T14:27:21.700Z,7.25
2023-02-06T14:30:07.807Z,7.20
2023-02-06T14:33:06.005Z,7.10
2023-02-06T14:35:46.068Z,7.01
2023-02-06T14:38:47.568Z,7.04
2023-02-06T14:41:19.858Z,7.09
2023-02-06T14:43:48.909Z,7.19
2023-02-06T14:46:25.080Z,7.26
2023-02-06T14:48:59.936Z,7.27
2023-02-06T14:51:28.602Z,7.25
2023-02-06T14:53:58.110Z,7.25
2023-02-06T14:56:32.290Z,7.28
2023-02-06T14:59:14.083Z,7.29
2023-02-06T15:01:42.092Z,7.29
2023-02-06T15:04:18.361Z,7.24
2023-02-06T15:06:52.730Z,7.20
2023-02-06T15:09:37.806Z,7.22
2023-02-06T15:12:24.751Z,7.23
2023-02-06T15:14:53.891Z,7.14
2023-02-06T15:17:26.699Z,7.21
2023-02-06T15:19:53.302Z,7.29
2023-02-06T15:22:29.956Z,7.28
2023-02-06T15:25:31.780Z,7.27
2023-02-06T15:28:04.979Z,7.27
2023-02-06T15:31:00.832Z,7.30
2023-02-06T15:33:33.731Z,7.33
2023-02-06T15:36:03.411Z,7.33
2023-02-06T15:38:33.227Z,7.32
2023-02-06T15:41:18.679Z,7.19
2023-02-06T15:44:21.603Z,7.15
2023-02-06T15:46:56.930Z,7.16
2023-02-06T15:49:37.979Z,7.15
2023-02-06T15:52:05.672Z,7.13
2023-02-06T15:54:33.452Z,7.14
2023-02-06T15:57:39.809Z,7.14
2023-02-06T16:00:18.993Z,7.16
2023-02-06T16:02:46.061Z,7.20
2023-02-06T16:05:38.099Z,7.22
2023-02-06T16:08:11.840Z,7.02
2023-02-06T16:11:05.420Z,7.02
2023-02-06T16:13:35.883Z,7.09
2023-02-06T16:16:16.512Z,7.09
2023-02-06T16:19:01.768Z,7.06
2023-02-06T16:22:14.218Z,7.07
2023-02-06T16:24:49.600Z,7.04
2023-02-06T16:27:26.187Z,6.92
2023-02-06T16:30:36.391Z,6.92
2023-02-06T16:33:22.996Z,6.95
2023-02-06T16:35:51.110Z,7.04
2023-02-06T16:38:22.243Z,7.02
2023-02-06T16:41:04.257Z,6.96
2023-02-06T16:44:02.356Z,6.91
2023-02-06T16:46:30.068Z,7.00
2023-02-06T16:48:58.946Z,7.05
2023-02-06T16:51:28.227Z,7.02
2023-02-06T16:53:55.143Z,6.98
2023-02-06T16:56:21.799Z,6.92
2023-02-06T16:58:49.067Z,6.94
2023-02-06T17:01:26.450Z,6.92
2023-02-06T17:03:53.647Z,6.82
2023-02-06T17:06:28.902Z,6.82
2023-02-06T17:09:03.342Z,6.84
2023-02-06T17:11:31.028Z,6.89
2023-02-06T17:13:57.708Z,6.89
2023-02-06T17:16:26.048Z,6.88
2023-02-06T17:18:53.199Z,6.85
2023-02-06T17:21:22.160Z,6.89
2023-02-06T17:23:50.366Z,6.88
2023-02-06T17:26:35.467Z,6.73
2023-02-06T17:29:01.958Z,6.75
2023-02-06T17:31:28.605Z,6.72
2023-02-06T17:33:55.152Z,6.68
2023-02-06T17:36:29.217Z,6.70
2023-02-06T17:38:58.854Z,6.64
2023-02-06T17:41:27.122Z,6.68
2023-02-06T17:43:53.707Z,6.64
2023-02-06T17:46:39.439Z,6.64
2023-02-06T17:49:06.264Z,6.61
2023-02-06T17:51:32.822Z,6.53
2023-02-06T17:54:18.203Z,6.60
2023-02-06T17:56:44.711Z,6.58
2023-02-06T17:59:14.178Z,6.52
2023-02-06T18:01:42.379Z,6.62
2023-02-06T18:04:13.077Z,6.67
2023-02-06T18:06:39.591Z,6.69
2023-02-06T18:09:06.248Z,6.63
2023-02-06T18:11:32.859Z,6.60
2023-02-06T18:14:05.694Z,6.47
2023-02-06T18:16:32.253Z,6.47
2023-02-06T18:18:59.614Z,6.50
2023-02-06T18:21:28.856Z,6.55
2023-02-06T18:23:55.466Z,6.59
2023-02-06T18:26:40.737Z,6.58
2023-02-06T18:29:07.418Z,6.52
2023-02-06T18:31:58.820Z,6.42
2023-02-06T18:34:25.419Z,6.32
2023-02-06T18:36:57.245Z,6.28
2023-02-06T18:39:24.072Z,6.22
2023-02-06T18:42:09.941Z,6.24
2023-02-06T18:44:41.696Z,6.21
2023-02-06T18:47:09.324Z,6.20
2023-02-06T18:49:41.506Z,6.19
2023-02-06T18:52:08.953Z,6.20
2023-02-06T18:54:36.473Z,6.12
2023-02-06T18:57:03.404Z,6.09
2023-02-06T18:59:35.401Z,6.07
2023-02-06T19:02:02.515Z,6.03
2023-02-06T19:04:31.288Z,6.05
2023-02-06T19:07:16.688Z,5.87
2023-02-06T19:09:43.322Z,5.98
2023-02-06T19:12:09.992Z,5.99
2023-02-06T19:14:39.909Z,5.96
2023-02-06T19:17:12.458Z,5.96
2023-02-06T19:19:41.374Z,5.89
2023-02-06T19:22:11.194Z,5.78
2023-02-06T19:24:44.452Z,5.78
2023-02-06T19:27:11.488Z,5.77
2023-02-06T19:29:43.657Z,5.66
2023-02-06T19:32:15.828Z,5.73
2023-02-06T19:34:44.024Z,5.66
2023-02-06T19:37:12.277Z,5.67
2023-02-06T19:39:44.383Z,5.63
2023-02-06T19:42:12.714Z,5.50
2023-02-06T19:44:39.409Z,5.52
2023-02-06T19:47:06.838Z,5.42
2023-02-06T19:49:33.605Z,5.40
2023-02-06T19:52:06.275Z,5.36
2023-02-06T19:54:32.813Z,5.39
2023-02-06T19:57:00.565Z,5.31
2023-02-06T19:59:29.332Z,5.37
2023-02-06T20:02:15.706Z,5.36
2023-02-06T20:05:20.138Z,5.32
2023-02-06T20:07:46.635Z,5.31
2023-02-06T20:10:13.122Z,5.22
2023-02-06T20:12:43.215Z,5.20
2023-02-06T20:15:14.092Z,5.22
2023-02-06T20:17:58.935Z,5.17
2023-02-06T20:20:25.426Z,4.99
2023-02-06T20:22:52.018Z,4.85
2023-02-06T20:25:18.687Z,4.85
2023-02-06T20:27:46.432Z,4.82
2023-02-06T20:30:32.302Z,4.87
2023-02-06T20:33:17.480Z,4.89
2023-02-06T20:36:23.676Z,4.79
2023-02-06T20:38:58.438Z,4.82
2023-02-06T20:41:30.921Z,4.86
2023-02-06T20:44:05.847Z,4.81
2023-02-06T20:46:36.436Z,4.81
2023-02-06T20:49:25.008Z,4.75
2023-02-06T20:51:52.184Z,4.81
2023-02-06T20:54:20.492Z,4.79
2023-02-06T20:56:47.202Z,4.76
2023-02-06T20:59:15.881Z,4.78
2023-02-06T21:02:01.023Z,4.80
2023-02-06T21:04:34.193Z,4.77
2023-02-06T21:07:20.580Z,4.63
2023-02-06T21:09:47.690Z,4.61
2023-02-06T21:12:15.316Z,4.57
2023-02-06T21:14:53.277Z,4.53
2023-02-06T21:17:38.301Z,4.54
2023-02-06T21:20:06.307Z,4.48
2023-02-06T21:22:33.528Z,4.47
2023-02-06T21:25:00.252Z,4.48
2023-02-06T21:27:28.997Z,4.47
2023-02-06T21:29:55.717Z,4.49
2023-02-06T21:32:22.286Z,4.40
2023-02-06T21:34:48.971Z,4.31
2023-02-06T21:37:15.725Z,4.22
2023-02-06T21:39:42.666Z,4.17
2023-02-06T21:42:10.484Z,4.18
2023-02-06T21:44:37.853Z,4.16
2023-02-06T21:47:04.884Z,4.13
2023-02-06T21:49:31.981Z,4.00
2023-02-06T21:51:59.278Z,4.07
2023-02-06T21:54:26.119Z,4.13
2023-02-06T21:56:53.471Z,4.09
2023-02-06T21:59:20.008Z,4.09
2023-02-06T22:01:46.587Z,4.11
2023-02-06T22:04:13.248Z,4.12
2023-02-06T22:06:40.162Z,4.12
2023-02-06T22:09:09.135Z,4.09
2023-02-06T22:11:38.211Z,4.04
2023-02-06T22:14:16.397Z,3.91
2023-02-06T22:16:43.181Z,3.96
2023-02-06T22:19:28.385Z,3.95
2023-02-06T22:22:13.573Z,3.89
2023-02-06T22:24:58.696Z,3.90
2023-02-06T22:27:25.571Z,3.87
2023-02-06T22:29:52.304Z,3.78
2023-02-06T22:32:18.792Z,3.82
2023-02-06T22:34:46.212Z,3.76
2023-02-06T22:37:12.743Z,3.75
2023-02-06T22:39:40.892Z,3.71
2023-02-06T22:42:07.416Z,3.67
2023-02-06T22:44:34.967Z,3.72
2023-02-06T22:47:20.147Z,3.64
2023-02-06T22:50:05.790Z,3.58
2023-02-06T22:53:09.790Z,3.51
2023-02-06T22:56:25.303Z,3.50
2023-02-06T22:59:25.017Z,3.47
2023-02-06T23:02:00.314Z,3.45
2023-02-06T23:04:42.142Z,3.47
2023-02-06T23:07:27.057Z,3.41
2023-02-06T23:09:59.887Z,3.46
2023-02-06T23:12:45.256Z,3.21
2023-02-06T23:15:13.695Z,3.05
2023-02-06T23:17:58.797Z,2.97
2023-02-06T23:20:41.767Z,3.13
2023-02-06T23:23:27.673Z,3.12
2023-02-06T23:25:54.790Z,2.96
2023-02-06T23:28:22.965Z,2.98
2023-02-06T23:30:51.085Z,2.97
2023-02-06T23:33:18.158Z,3.03
2023-02-06T23:35:44.850Z,2.98
2023-02-06T23:38:11.826Z,3.07
2023-02-06T23:40:39.307Z,3.05
2023-02-06T23:43:06.472Z,3.12
2023-02-06T23:45:33.302Z,2.99
2023-02-06T23:47:59.983Z,2.85
2023-02-06T23:50:27.130Z,2.87
2023-02-06T23:52:53.885Z,2.98
2023-02-06T23:55:20.912Z,2.94
2023-02-06T23:57:47.527Z,2.85
